Time;durP1;ratioP1;P1;durP2;ratioP2;P2;SDS_P1;SDS_P2;PMS_P1;PMS_P2;Temp;Humidity;BMP_temperature;BMP_pressure;BME280_temperature;BME280_humidity;BME280_pressure;Samples;Min_cycle;Max_cycle;Signal;HPM_P1;HPM_P2
2022/08/27 00:01:10;;;;;;;12.70;8.90;;;20.30;79.50;;;;;;5100557;28;20184;-58
2022/08/27 00:03:36;;;;;;;14.07;8.50;;;20.30;79.50;;;;;;5093019;28;20193;-58
2022/08/27 00:06:03;;;;;;;13.37;8.70;;;20.30;79.70;;;;;;5094441;28;20199;-58
2022/08/27 00:08:29;;;;;;;13.00;8.57;;;20.30;79.80;;;;;;5106867;28;20208;-58
2022/08/27 00:10:56;;;;;;;12.87;9.33;;;20.20;80.00;;;;;;5096460;28;20212;-58
2022/08/27 00:13:21;;;;;;;14.43;8.67;;;20.20;80.10;;;;;;5114189;28;20195;-58
2022/08/27 00:15:47;;;;;;;10.80;9.40;;;20.20;80.00;;;;;;5064843;28;20184;-58
2022/08/27 00:18:13;;;;;;;11.70;8.33;;;20.20;80.00;;;;;;5064396;28;20220;-58
2022/08/27 00:20:38;;;;;;;12.07;9.10;;;20.20;80.00;;;;;;5078812;28;20181;-58
2022/08/27 00:23:04;;;;;;;11.60;8.20;;;20.20;79.90;;;;;;5080064;28;20181;-58
2022/08/27 00:25:30;;;;;;;14.17;8.27;;;20.20;80.00;;;;;;5091628;27;20251;-58
2022/08/27 00:27:55;;;;;;;13.00;8.80;;;20.10;80.00;;;;;;5083076;28;20228;-58
2022/08/27 00:30:22;;;;;;;12.90;8.27;;;20.10;80.10;;;;;;5089959;28;20515;-58
2022/08/27 00:32:48;;;;;;;15.20;8.23;;;20.00;80.40;;;;;;5099021;28;20274;-58
2022/08/27 00:35:14;;;;;;;9.87;8.47;;;20.00;80.50;;;;;;5073499;28;20266;-58
2022/08/27 00:37:41;;;;;;;13.23;8.57;;;20.00;80.60;;;;;;5064291;28;20197;-58
2022/08/27 00:40:10;;;;;;;12.50;8.43;;;20.00;80.50;;;;;;5056129;28;20189;-58
2022/08/27 00:42:36;;;;;;;16.03;8.60;;;20.00;80.60;;;;;;5097099;28;20192;-58
2022/08/27 00:45:04;;;;;;;10.77;8.57;;;19.90;80.70;;;;;;5083071;28;20200;-58
2022/08/27 00:47:32;;;;;;;12.27;8.40;;;19.90;80.70;;;;;;5088656;28;20189;-58
2022/08/27 00:50:04;;;;;;;11.70;8.10;;;19.90;80.70;;;;;;5110370;28;20216;-58
2022/08/27 00:52:34;;;;;;;11.50;8.67;;;19.90;80.90;;;;;;5115705;28;20191;-58
2022/08/27 00:55:10;;;;;;;11.80;9.00;;;19.90;81.20;;;;;;5117817;28;20259;-58
2022/08/27 00:57:39;;;;;;;10.63;7.77;;;19.80;81.20;;;;;;5111831;28;20180;-58
2022/08/27 01:00:09;;;;;;;14.10;8.87;;;19.80;81.20;;;;;;5089740;28;20188;-58
2022/08/27 01:02:35;;;;;;;11.63;8.50;;;19.80;81.30;;;;;;5110691;28;20193;-58
2022/08/27 01:05:06;;;;;;;13.57;8.90;;;19.80;81.20;;;;;;5073587;28;20299;-58
2022/08/27 01:07:35;;;;;;;13.50;8.93;;;19.80;81.30;;;;;;5095674;28;20188;-58
2022/08/27 01:10:05;;;;;;;11.87;9.10;;;19.80;81.20;;;;;;5099400;28;20239;-58
2022/08/27 01:12:32;;;;;;;12.97;8.90;;;19.80;81.30;;;;;;5098908;28;20188;-58
2022/08/27 01:15:00;;;;;;;10.87;9.10;;;19.80;81.40;;;;;;5056748;28;20193;-58
2022/08/27 01:17:26;;;;;;;13.30;8.77;;;19.70;81.40;;;;;;5098507;28;20180;-58
2022/08/27 01:19:56;;;;;;;11.97;8.67;;;19.70;81.50;;;;;;5086560;28;20193;-58
2022/08/27 01:22:48;;;;;;;13.23;9.20;;;19.70;81.50;;;;;;5098865;28;20199;-58
2022/08/27 01:25:15;;;;;;;12.80;9.47;;;19.70;81.60;;;;;;5090505;28;20211;-58
2022/08/27 01:27:42;;;;;;;10.37;9.23;;;19.70;81.70;;;;;;5080894;28;20331;-58
2022/08/27 01:30:11;;;;;;;9.37;8.17;;;19.70;81.70;;;;;;5081592;28;20265;-58
2022/08/27 01:32:37;;;;;;;11.40;9.93;;;19.60;81.80;;;;;;5117428;28;20188;-58
2022/08/27 01:35:07;;;;;;;11.90;8.40;;;19.70;81.60;;;;;;5110430;28;20192;-58
2022/08/27 01:37:33;;;;;;;11.93;9.20;;;19.70;81.60;;;;;;5098777;28;20261;-58
2022/08/27 01:39:59;;;;;;;16.27;9.47;;;19.60;81.50;;;;;;5086778;28;20197;-58
2022/08/27 01:42:37;;;;;;;10.77;8.50;;;19.70;81.50;;;;;;5084858;28;20200;-58
2022/08/27 01:45:13;;;;;;;13.23;8.80;;;19.60;81.40;;;;;;5088282;28;20287;-58
2022/08/27 01:47:39;;;;;;;10.80;8.80;;;19.60;81.40;;;;;;5088999;28;20189;-58
2022/08/27 01:50:12;;;;;;;12.50;9.17;;;19.60;81.60;;;;;;5089180;28;20233;-58
2022/08/27 01:52:38;;;;;;;14.53;9.33;;;19.50;81.60;;;;;;5115612;28;20191;-58
2022/08/27 01:55:07;;;;;;;14.47;9.80;;;19.50;81.70;;;;;;5128481;27;20188;-58
2022/08/27 01:57:34;;;;;;;10.50;8.97;;;19.50;81.60;;;;;;5089257;28;20195;-58
2022/08/27 02:00:01;;;;;;;12.67;8.90;;;19.50;81.70;;;;;;5100627;28;20276;-58
2022/08/27 02:02:27;;;;;;;12.90;8.90;;;19.50;81.80;;;;;;5097607;28;20195;-58
2022/08/27 02:04:53;;;;;;;11.30;8.93;;;19.40;81.80;;;;;;5100391;28;20197;-58
2022/08/27 02:07:18;;;;;;;13.90;9.33;;;19.40;82.00;;;;;;5098267;28;20199;-58
2022/08/27 02:09:44;;;;;;;12.30;8.80;;;19.40;82.10;;;;;;5081481;28;20218;-58
2022/08/27 02:12:10;;;;;;;9.87;8.37;;;19.40;82.00;;;;;;5086650;28;20192;-58
2022/08/27 02:14:36;;;;;;;10.17;8.73;;;19.40;82.10;;;;;;5079560;28;20186;-58
2022/08/27 02:17:01;;;;;;;13.50;9.83;;;19.30;82.30;;;;;;5110570;28;20192;-58
2022/08/27 02:19:27;;;;;;;11.63;8.70;;;19.30;82.30;;;;;;5080558;28;20193;-58
2022/08/27 02:21:53;;;;;;;12.87;10.13;;;19.40;82.30;;;;;;5097982;28;20196;-58
2022/08/27 02:24:18;;;;;;;14.73;9.50;;;19.40;82.40;;;;;;5098032;28;20188;-58
2022/08/27 02:26:44;;;;;;;18.07;10.20;;;19.40;82.40;;;;;;5082838;27;20236;-58
2022/08/27 02:29:10;;;;;;;11.23;9.00;;;19.50;82.30;;;;;;5092212;28;20218;-58
2022/08/27 02:31:36;;;;;;;17.70;9.83;;;19.40;82.20;;;;;;5077804;28;20181;-58
2022/08/27 02:34:03;;;;;;;12.37;9.37;;;19.30;82.10;;;;;;5098791;28;20192;-58
2022/08/27 02:36:28;;;;;;;11.13;8.90;;;19.30;82.20;;;;;;5064297;28;20219;-58
2022/08/27 02:38:55;;;;;;;10.50;9.37;;;19.30;82.30;;;;;;5104779;28;20213;-58
2022/08/27 02:41:21;;;;;;;11.53;9.60;;;19.30;82.30;;;;;;5071853;28;20192;-58
2022/08/27 02:43:47;;;;;;;10.87;9.03;;;19.30;82.30;;;;;;5097531;28;20283;-58
2022/08/27 02:46:13;;;;;;;14.63;9.30;;;19.30;82.30;;;;;;5061465;28;20316;-58
2022/08/27 02:48:39;;;;;;;12.53;9.40;;;19.30;82.40;;;;;;5099890;27;20299;-58
2022/08/27 02:51:06;;;;;;;12.63;8.90;;;19.30;82.50;;;;;;5091354;28;20211;-58
2022/08/27 02:53:32;;;;;;;12.47;9.90;;;19.30;82.40;;;;;;5119180;27;20176;-58
2022/08/27 02:55:58;;;;;;;14.50;9.63;;;19.20;82.40;;;;;;5097201;28;20188;-58
2022/08/27 02:58:24;;;;;;;11.33;9.63;;;19.30;82.40;;;;;;5100547;28;20242;-58
2022/08/27 03:00:50;;;;;;;12.83;9.53;;;19.30;82.50;;;;;;5114806;28;20188;-58
2022/08/27 03:03:16;;;;;;;12.57;10.30;;;19.30;82.40;;;;;;5097405;28;20188;-58
2022/08/27 03:05:41;;;;;;;10.83;9.77;;;19.30;82.40;;;;;;5083363;28;20188;-58
2022/08/27 03:08:07;;;;;;;11.93;9.80;;;19.30;82.70;;;;;;5074184;28;20269;-58
2022/08/27 03:10:33;;;;;;;12.83;9.20;;;19.20;82.60;;;;;;5083662;28;20196;-58
2022/08/27 03:12:59;;;;;;;14.13;9.40;;;19.20;82.70;;;;;;5096258;28;20284;-58
2022/08/27 03:15:25;;;;;;;12.03;9.73;;;19.20;82.70;;;;;;5074859;28;20221;-58
2022/08/27 03:20:40;;;;;;;11.13;9.80;;;19.20;82.80;;;;;;5106762;28;20215;-58
2022/08/27 03:23:07;;;;;;;14.07;10.23;;;19.20;82.90;;;;;;5087175;28;20219;-58
2022/08/27 03:25:33;;;;;;;13.33;8.73;;;19.20;82.80;;;;;;5072233;28;20245;-58
2022/08/27 03:27:58;;;;;;;13.57;10.17;;;19.10;82.80;;;;;;5096648;28;20240;-58
2022/08/27 03:30:24;;;;;;;9.80;8.70;;;19.10;83.10;;;;;;5060257;28;20209;-58
2022/08/27 03:32:50;;;;;;;9.90;8.87;;;19.10;83.00;;;;;;5096259;28;20191;-58
2022/08/27 03:35:18;;;;;;;10.47;9.37;;;19.10;83.00;;;;;;5092385;28;20178;-58
2022/08/27 03:37:44;;;;;;;10.97;9.20;;;19.10;83.00;;;;;;5094832;28;20184;-58
2022/08/27 03:40:11;;;;;;;12.40;9.13;;;19.10;83.00;;;;;;5088145;28;20191;-58
2022/08/27 03:42:37;;;;;;;15.40;9.80;;;19.10;83.00;;;;;;5096062;28;20180;-58
2022/08/27 03:45:04;;;;;;;11.23;8.90;;;19.00;83.10;;;;;;5060943;28;20201;-58
2022/08/27 03:47:31;;;;;;;10.07;8.40;;;19.00;83.20;;;;;;5084244;28;20211;-58
2022/08/27 03:49:59;;;;;;;10.90;9.57;;;19.00;83.40;;;;;;5066070;28;20217;-58
2022/08/27 03:52:25;;;;;;;9.80;8.80;;;19.00;83.40;;;;;;5099882;28;20180;-58
2022/08/27 03:54:50;;;;;;;12.67;10.03;;;19.00;83.40;;;;;;5099039;28;20183;-58
2022/08/27 03:57:16;;;;;;;13.33;9.27;;;19.00;83.30;;;;;;5093630;28;20188;-58
2022/08/27 03:59:42;;;;;;;11.50;9.87;;;19.00;83.20;;;;;;5103431;28;20192;-58
2022/08/27 04:02:07;;;;;;;11.23;10.00;;;18.90;83.20;;;;;;5102048;28;20226;-58
2022/08/27 04:04:34;;;;;;;12.93;9.50;;;18.90;83.30;;;;;;5094509;28;20188;-58
2022/08/27 04:07:00;;;;;;;13.03;9.97;;;18.90;83.30;;;;;;5085688;28;20219;-58
2022/08/27 04:09:25;;;;;;;13.47;9.40;;;18.90;83.40;;;;;;5095918;28;20273;-58
2022/08/27 04:11:51;;;;;;;12.87;9.30;;;18.90;83.40;;;;;;5108228;28;20180;-57
2022/08/27 04:14:17;;;;;;;11.43;9.20;;;18.90;83.40;;;;;;5074783;28;20212;-58
2022/08/27 04:16:42;;;;;;;11.40;9.53;;;18.90;83.30;;;;;;5072419;28;20188;-58
2022/08/27 04:19:08;;;;;;;17.23;9.27;;;18.80;83.30;;;;;;5081243;28;20338;-58
2022/08/27 04:21:35;;;;;;;11.60;9.83;;;18.80;83.40;;;;;;5055646;28;20220;-58
2022/08/27 04:24:00;;;;;;;12.70;9.33;;;18.80;83.50;;;;;;5047039;28;20189;-58
2022/08/27 04:26:27;;;;;;;11.47;9.73;;;18.80;83.50;;;;;;5079788;28;20238;-58
2022/08/27 04:28:54;;;;;;;11.63;9.13;;;18.80;83.50;;;;;;5091194;28;20219;-58
2022/08/27 04:31:20;;;;;;;11.60;9.17;;;18.80;83.60;;;;;;5085472;28;20192;-58
2022/08/27 04:33:46;;;;;;;12.60;9.10;;;18.80;83.70;;;;;;5095155;28;20212;-58
2022/08/27 04:36:13;;;;;;;10.57;9.07;;;18.80;83.70;;;;;;5105816;28;20192;-58
2022/08/27 04:38:39;;;;;;;10.47;9.27;;;18.80;83.70;;;;;;5075909;28;20239;-58
2022/08/27 04:41:19;;;;;;;13.50;9.30;;;18.80;83.60;;;;;;5118885;28;20219;-57
2022/08/27 04:43:47;;;;;;;12.23;9.33;;;18.80;83.70;;;;;;5077780;28;20218;-57
2022/08/27 04:46:13;;;;;;;13.03;9.53;;;18.80;83.90;;;;;;5094011;28;20189;-57
2022/08/27 04:48:38;;;;;;;10.93;9.83;;;18.80;83.80;;;;;;5058034;28;20232;-57
2022/08/27 04:51:04;;;;;;;11.57;9.10;;;18.80;83.90;;;;;;5089610;28;20207;-57
2022/08/27 04:53:30;;;;;;;11.40;9.67;;;18.80;83.90;;;;;;5102132;28;20183;-57
2022/08/27 04:55:56;;;;;;;11.70;9.27;;;18.80;83.90;;;;;;5068498;28;20191;-58
2022/08/27 04:58:23;;;;;;;12.33;9.67;;;18.80;84.00;;;;;;5078942;28;20275;-58
2022/08/27 05:00:55;;;;;;;14.57;9.60;;;18.80;84.10;;;;;;5078729;28;20203;-57
2022/08/27 05:03:22;;;;;;;13.10;9.87;;;18.80;84.20;;;;;;5098988;28;20266;-58
2022/08/27 05:05:50;;;;;;;11.57;9.97;;;18.90;84.20;;;;;;5099082;28;20223;-58
2022/08/27 05:08:16;;;;;;;10.50;9.23;;;18.80;84.20;;;;;;5075607;28;20215;-58
2022/08/27 05:10:48;;;;;;;10.57;8.93;;;18.90;84.20;;;;;;5063209;28;20236;-58
2022/08/27 05:13:14;;;;;;;11.60;8.93;;;18.90;84.20;;;;;;5087980;28;20222;-58
2022/08/27 05:15:41;;;;;;;12.43;9.13;;;18.90;84.30;;;;;;5114289;27;20177;-58
2022/08/27 05:18:08;;;;;;;12.80;10.03;;;18.90;84.20;;;;;;5103857;28;20192;-58
2022/08/27 05:20:40;;;;;;;11.40;9.00;;;19.00;84.40;;;;;;5086267;28;20185;-58
2022/08/27 05:23:06;;;;;;;9.90;8.70;;;19.00;84.40;;;;;;5095094;28;20262;-58
2022/08/27 05:25:37;;;;;;;12.77;9.37;;;19.00;84.40;;;;;;5123478;27;20196;-58
2022/08/27 05:28:03;;;;;;;13.70;9.77;;;19.10;84.30;;;;;;5098373;28;20236;-58
2022/08/27 05:30:29;;;;;;;13.47;9.00;;;19.20;84.20;;;;;;5065323;28;20220;-58
2022/08/27 05:32:54;;;;;;;11.70;8.97;;;19.20;84.20;;;;;;5104649;28;20192;-57
2022/08/27 05:35:20;;;;;;;10.13;9.07;;;19.30;84.10;;;;;;5064541;28;20214;-57
2022/08/27 05:37:45;;;;;;;11.93;10.03;;;19.30;84.00;;;;;;5074283;28;20188;-56
2022/08/27 05:40:11;;;;;;;13.30;9.60;;;19.30;84.10;;;;;;5088320;28;20193;-59
2022/08/27 05:42:37;;;;;;;11.83;8.67;;;19.30;84.00;;;;;;5080956;27;20192;-57
2022/08/27 05:45:03;;;;;;;10.93;8.60;;;19.40;84.10;;;;;;5089037;28;20204;-57
2022/08/27 05:47:28;;;;;;;10.10;9.00;;;19.40;84.10;;;;;;5075042;28;20188;-58
2022/08/27 05:49:54;;;;;;;10.53;8.73;;;19.50;84.10;;;;;;5053943;28;20213;-57
2022/08/27 05:52:20;;;;;;;12.53;9.03;;;19.50;84.10;;;;;;5054588;28;20254;-56
2022/08/27 05:54:46;;;;;;;11.40;9.67;;;19.50;84.10;;;;;;5103342;28;20268;-58
2022/08/27 05:57:12;;;;;;;14.40;9.07;;;19.50;84.10;;;;;;5074273;28;20252;-58
2022/08/27 06:02:23;;;;;;;13.20;9.30;;;19.60;84.00;;;;;;5089844;28;20195;-56
2022/08/27 06:04:49;;;;;;;10.07;8.93;;;19.60;84.00;;;;;;5085990;28;20240;-58
2022/08/27 06:07:14;;;;;;;12.43;9.77;;;19.60;83.90;;;;;;5083218;28;20197;-58
2022/08/27 06:09:40;;;;;;;10.77;8.90;;;19.70;83.90;;;;;;5092044;28;20216;-59
2022/08/27 06:12:07;;;;;;;14.00;9.83;;;19.70;83.70;;;;;;5094516;28;20221;-58
2022/08/27 06:14:34;;;;;;;12.53;9.97;;;19.70;83.60;;;;;;5079645;28;20184;-59
2022/08/27 06:17:00;;;;;;;12.97;9.70;;;19.80;83.60;;;;;;5078255;28;20193;-59
2022/08/27 06:19:26;;;;;;;12.17;9.63;;;19.80;83.50;;;;;;5115319;28;20196;-59
2022/08/27 06:21:52;;;;;;;9.83;8.83;;;19.80;83.40;;;;;;5097509;28;20271;-58
2022/08/27 06:24:18;;;;;;;13.83;10.07;;;19.80;83.40;;;;;;5071166;28;20185;-58
2022/08/27 06:26:44;;;;;;;11.70;8.57;;;19.80;83.30;;;;;;5064150;28;20236;-58
2022/08/27 06:29:11;;;;;;;11.63;9.73;;;19.80;83.30;;;;;;5097424;28;20204;-58
2022/08/27 06:31:37;;;;;;;9.50;8.20;;;19.80;83.20;;;;;;5110334;28;20191;-58
2022/08/27 06:34:06;;;;;;;13.17;9.50;;;19.80;83.20;;;;;;5088985;28;20180;-58
2022/08/27 06:36:34;;;;;;;11.80;9.10;;;19.80;83.20;;;;;;5092162;28;20188;-58
2022/08/27 06:39:00;;;;;;;12.83;9.70;;;19.90;83.20;;;;;;5092086;28;20192;-58
2022/08/27 06:41:27;;;;;;;10.17;9.00;;;19.90;83.20;;;;;;5080929;28;20184;-58
2022/08/27 06:43:54;;;;;;;13.07;9.07;;;19.90;83.20;;;;;;5100206;28;20192;-58
2022/08/27 06:46:22;;;;;;;12.40;9.27;;;20.00;83.20;;;;;;5109930;28;20210;-58
2022/08/27 06:48:56;;;;;;;11.07;9.13;;;20.00;83.10;;;;;;5116686;27;20211;-58
2022/08/27 06:51:30;;;;;;;12.27;9.83;;;20.00;83.10;;;;;;5089758;28;20192;-58
2022/08/27 06:54:00;;;;;;;9.70;8.70;;;20.10;83.40;;;;;;5092564;28;20190;-59
2022/08/27 06:56:26;;;;;;;10.03;8.33;;;20.10;83.40;;;;;;5090346;28;20180;-61
2022/08/27 06:58:54;;;;;;;10.97;9.77;;;20.10;83.70;;;;;;5089057;28;20192;-61
2022/08/27 07:01:23;;;;;;;10.20;8.77;;;20.20;83.70;;;;;;5096845;28;20199;-61
2022/08/27 07:03:49;;;;;;;12.67;9.03;;;20.20;83.70;;;;;;5108531;28;20199;-61
2022/08/27 07:06:16;;;;;;;10.77;9.23;;;20.20;83.60;;;;;;5080495;28;20249;-61
2022/08/27 07:08:42;;;;;;;10.13;9.13;;;20.20;83.50;;;;;;5096916;28;20254;-61
2022/08/27 07:11:10;;;;;;;10.20;9.20;;;20.30;83.30;;;;;;5077932;28;20195;-61
2022/08/27 07:13:37;;;;;;;9.67;8.70;;;20.30;83.30;;;;;;5110122;28;20245;-61
2022/08/27 07:16:04;;;;;;;9.13;8.23;;;20.40;83.20;;;;;;5079824;28;20181;-61
2022/08/27 07:18:30;;;;;;;10.63;9.63;;;20.40;83.10;;;;;;5095514;28;20263;-61
2022/08/27 07:20:56;;;;;;;14.77;9.67;;;20.50;82.30;;;;;;5076442;28;20326;-60
2022/08/27 07:23:21;;;;;;;10.67;9.50;;;20.50;81.60;;;;;;5079042;28;20184;-61
2022/08/27 07:25:47;;;;;;;9.97;8.97;;;20.70;81.50;;;;;;5076256;28;20188;-61
2022/08/27 07:28:13;;;;;;;9.57;8.57;;;20.70;81.50;;;;;;5060076;28;20207;-61
2022/08/27 07:30:39;;;;;;;8.63;7.63;;;20.70;81.40;;;;;;5077674;28;20353;-60
2022/08/27 07:33:05;;;;;;;9.23;8.20;;;20.80;81.40;;;;;;5076922;28;20256;-61
2022/08/27 07:35:31;;;;;;;9.97;8.87;;;20.80;81.20;;;;;;5069922;28;20184;-61
2022/08/27 07:37:57;;;;;;;10.07;8.63;;;20.90;81.10;;;;;;5077983;28;20207;-61
2022/08/27 07:40:23;;;;;;;9.87;8.97;;;20.90;80.70;;;;;;5094338;28;20196;-61
2022/08/27 07:45:34;;;;;;;9.80;8.20;;;21.10;80.40;;;;;;5112130;28;20187;-61
2022/08/27 07:47:59;;;;;;;12.37;8.27;;;21.20;80.20;;;;;;5107263;28;20196;-61
2022/08/27 07:50:25;;;;;;;8.93;8.13;;;21.30;79.90;;;;;;5054969;28;20618;-61
2022/08/27 07:52:51;;;;;;;13.53;9.40;;;21.30;79.90;;;;;;5060374;28;20196;-61
2022/08/27 07:55:17;;;;;;;12.60;8.23;;;21.40;79.70;;;;;;5089939;28;20180;-60
2022/08/27 07:57:44;;;;;;;17.37;8.83;;;21.50;79.90;;;;;;5088969;28;20188;-61
2022/08/27 08:00:11;;;;;;;13.13;7.83;;;21.80;76.30;;;;;;5056883;28;20188;-60
2022/08/27 08:02:38;;;;;;;13.67;8.37;;;22.40;73.80;;;;;;5107326;28;20257;-62
2022/08/27 08:05:04;;;;;;;15.20;9.47;;;22.30;74.50;;;;;;5076924;28;20217;-61
2022/08/27 08:07:31;;;;;;;16.13;8.80;;;22.40;74.20;;;;;;5077254;28;20251;-62
2022/08/27 08:09:58;;;;;;;14.83;9.17;;;22.40;75.20;;;;;;5085178;28;20224;-62
2022/08/27 08:12:23;;;;;;;13.40;8.90;;;22.40;74.90;;;;;;5072234;28;20185;-61
2022/08/27 08:14:49;;;;;;;11.53;8.50;;;22.60;74.90;;;;;;5073781;28;20243;-61
2022/08/27 08:17:15;;;;;;;14.40;8.13;;;22.60;75.00;;;;;;5083587;28;20255;-61
2022/08/27 08:19:40;;;;;;;12.60;8.10;;;22.60;75.00;;;;;;5061582;28;20200;-61
2022/08/27 08:22:07;;;;;;;11.77;7.80;;;22.70;74.10;;;;;;5056318;28;20224;-60
2022/08/27 08:24:35;;;;;;;11.47;8.40;;;22.70;73.90;;;;;;5073525;28;20180;-61
2022/08/27 08:27:01;;;;;;;11.97;8.20;;;22.80;74.00;;;;;;5093963;28;20232;-61
2022/08/27 08:29:26;;;;;;;12.30;8.27;;;22.90;73.40;;;;;;5075155;28;20213;-60
2022/08/27 08:31:52;;;;;;;14.40;8.40;;;23.10;73.70;;;;;;5086677;28;20271;-61
2022/08/27 08:34:19;;;;;;;9.47;8.30;;;23.10;74.40;;;;;;5077416;28;20180;-61
2022/08/27 08:36:45;;;;;;;9.10;7.97;;;23.00;74.70;;;;;;5090355;28;20201;-61
2022/08/27 08:39:11;;;;;;;13.13;8.33;;;23.10;74.00;;;;;;5077526;28;20192;-61
2022/08/27 08:41:38;;;;;;;17.47;8.17;;;23.10;74.50;;;;;;5077562;28;20185;-61
2022/08/27 08:44:17;;;;;;;11.63;7.60;;;23.50;71.40;;;;;;5114429;28;20188;-61
2022/08/27 08:46:54;;;;;;;10.60;7.93;;;23.70;71.40;;;;;;5097329;28;20192;-61
2022/08/27 08:49:52;;;;;;;11.93;7.90;;;23.70;73.30;;;;;;5115855;28;20204;-62
2022/08/27 08:52:42;;;;;;;15.87;8.23;;;23.60;71.90;;;;;;5065793;28;20195;-62
2022/08/27 08:55:26;;;;;;;11.40;8.23;;;23.80;70.40;;;;;;5098553;28;20180;-62
2022/08/27 08:58:23;;;;;;;10.17;7.80;;;23.90;70.50;;;;;;5097634;28;20245;-62
2022/08/27 09:00:57;;;;;;;13.87;7.83;;;23.90;71.50;;;;;;5095857;28;20180;-62
2022/08/27 09:03:24;;;;;;;11.20;7.87;;;24.10;69.60;;;;;;5098082;28;20183;-62
2022/08/27 09:06:01;;;;;;;13.73;7.70;;;24.20;68.60;;;;;;5076595;28;20195;-61
2022/08/27 09:08:35;;;;;;;16.10;8.07;;;24.20;69.80;;;;;;5095036;28;20229;-60
2022/08/27 09:11:26;;;;;;;10.97;7.67;;;24.30;69.40;;;;;;5115632;28;20184;-61
2022/08/27 09:13:56;;;;;;;13.40;8.10;;;24.40;68.40;;;;;;5098222;28;20205;-61
2022/08/27 09:16:23;;;;;;;13.73;7.90;;;24.50;68.30;;;;;;5096674;28;20265;-61
2022/08/27 09:18:49;;;;;;;10.57;7.83;;;24.70;68.70;;;;;;5097105;28;20191;-61
2022/08/27 09:21:48;;;;;;;12.37;8.30;;;24.90;68.10;;;;;;5105893;28;20204;-61
2022/08/27 09:24:26;;;;;;;12.03;7.87;;;24.90;67.20;;;;;;5096707;28;20188;-61
2022/08/27 09:26:52;;;;;;;11.40;7.93;;;25.20;65.50;;;;;;5101099;28;20236;-61
2022/08/27 09:29:19;;;;;;;12.60;7.57;;;25.20;65.40;;;;;;5096926;28;20196;-61
2022/08/27 09:31:56;;;;;;;11.37;7.90;;;25.30;66.30;;;;;;5085065;28;20277;-61
2022/08/27 09:34:24;;;;;;;10.40;8.00;;;25.40;66.70;;;;;;5097280;28;20176;-62
2022/08/27 09:36:53;;;;;;;15.83;7.50;;;25.40;65.50;;;;;;5097491;28;20188;-61
2022/08/27 09:39:25;;;;;;;12.90;8.10;;;25.60;66.50;;;;;;5097527;28;20188;-61
2022/08/27 09:41:51;;;;;;;11.67;7.47;;;25.60;65.60;;;;;;5095771;28;20181;-61
2022/08/27 09:44:19;;;;;;;8.93;6.97;;;25.60;65.60;;;;;;5101562;28;20188;-62
2022/08/27 09:47:01;;;;;;;14.67;8.00;;;25.60;66.70;;;;;;5113640;27;20189;-61
2022/08/27 09:49:28;;;;;;;13.33;7.87;;;25.70;65.10;;;;;;5102920;28;20282;-62
2022/08/27 09:51:55;;;;;;;9.77;7.47;;;25.80;66.10;;;;;;5096615;28;20195;-61
2022/08/27 09:54:41;;;;;;;15.70;7.43;;;25.80;65.50;;;;;;5115628;28;20226;-61
2022/08/27 09:57:09;;;;;;;14.90;8.27;;;25.80;65.60;;;;;;5111822;28;20184;-62
2022/08/27 09:59:39;;;;;;;12.77;8.10;;;25.80;64.70;;;;;;5105187;28;20219;-61
2022/08/27 10:02:20;;;;;;;17.03;8.47;;;25.80;64.90;;;;;;5095693;28;20188;-61
2022/08/27 10:04:52;;;;;;;7.93;7.13;;;26.00;63.50;;;;;;5105093;27;20191;-61
2022/08/27 10:07:46;;;;;;;15.97;7.53;;;26.10;63.30;;;;;;5097227;28;20180;-62
2022/08/27 10:10:41;;;;;;;12.93;6.97;;;26.20;63.50;;;;;;5087139;28;20299;-61
2022/08/27 10:13:17;;;;;;;12.13;7.27;;;26.20;64.60;;;;;;5087772;28;20180;-61
2022/08/27 10:15:53;;;;;;;12.07;6.60;;;26.30;62.70;;;;;;5096940;28;20187;-62
2022/08/27 10:18:37;;;;;;;11.07;7.50;;;26.40;61.40;;;;;;5114256;28;20180;-62
2022/08/27 10:21:10;;;;;;;15.57;8.20;;;26.40;61.90;;;;;;5092703;28;20188;-62
2022/08/27 10:23:43;;;;;;;9.93;6.53;;;26.60;62.10;;;;;;5095481;28;20271;-61
2022/08/27 10:26:23;;;;;;;10.23;7.13;;;26.60;61.40;;;;;;5107724;28;20232;-62
2022/08/27 10:28:52;;;;;;;10.77;6.60;;;26.70;60.90;;;;;;5096893;28;20232;-61
2022/08/27 10:31:56;;;;;;;14.47;6.33;;;26.80;61.30;;;;;;5106705;28;20192;-61
2022/08/27 10:34:44;;;;;;;12.77;6.47;;;26.90;60.20;;;;;;5112275;28;20351;-61
2022/08/27 10:37:38;;;;;;;9.87;6.27;;;26.90;58.90;;;;;;5076722;28;20192;-61
2022/08/27 10:40:18;;;;;;;10.60;6.07;;;27.00;57.90;;;;;;5099629;27;20188;-62
2022/08/27 10:42:53;;;;;;;11.07;6.57;;;26.90;59.40;;;;;;5081258;28;20211;-61
2022/08/27 10:45:45;;;;;;;10.87;6.40;;;27.00;60.80;;;;;;5095934;28;20188;-61
2022/08/27 10:48:27;;;;;;;12.40;6.70;;;27.10;62.00;;;;;;5093874;28;20192;-62
2022/08/27 10:51:12;;;;;;;11.07;6.90;;;27.20;61.50;;;;;;5096515;28;20211;-62
2022/08/27 10:54:03;;;;;;;12.60;6.33;;;27.30;59.70;;;;;;5095492;28;20176;-61
2022/08/27 10:56:42;;;;;;;8.33;6.00;;;27.20;60.30;;;;;;5108901;28;20222;-62
2022/08/27 10:59:26;;;;;;;9.47;5.93;;;27.30;59.50;;;;;;5094835;28;20199;-61
2022/08/27 11:01:57;;;;;;;12.83;6.77;;;27.30;59.90;;;;;;5112486;28;20180;-62
2022/08/27 11:04:38;;;;;;;12.37;6.67;;;27.40;59.90;;;;;;5095135;28;20188;-62
2022/08/27 11:07:06;;;;;;;8.60;5.77;;;27.50;59.10;;;;;;5110568;28;20228;-62
2022/08/27 11:10:08;;;;;;;11.37;5.60;;;27.50;60.10;;;;;;5093760;28;20192;-61
2022/08/27 11:12:38;;;;;;;10.70;5.87;;;27.40;57.00;;;;;;5094143;28;20175;-61
2022/08/27 11:15:14;;;;;;;12.77;6.47;;;27.30;56.80;;;;;;5095323;28;20192;-62
2022/08/27 11:17:49;;;;;;;12.47;7.00;;;27.30;56.00;;;;;;5093876;28;20180;-61
2022/08/27 11:20:29;;;;;;;8.47;6.60;;;27.40;55.40;;;;;;5119089;27;20187;-62
2022/08/27 11:23:03;;;;;;;12.67;7.77;;;27.20;59.60;;;;;;5085684;28;20191;-62
2022/08/27 11:25:58;;;;;;;15.40;8.03;;;26.90;60.40;;;;;;5094093;28;20195;-62
2022/08/27 11:28:30;;;;;;;10.90;7.90;;;26.80;61.00;;;;;;5083222;28;20196;-61
2022/08/27 11:31:16;;;;;;;11.77;7.53;;;26.60;62.00;;;;;;5096633;28;20184;-61
2022/08/27 11:33:54;;;;;;;14.00;7.40;;;26.60;61.30;;;;;;5112901;28;20168;-61
2022/08/27 11:36:52;;;;;;;8.87;7.60;;;26.70;61.70;;;;;;5094619;28;20192;-62
2022/08/27 11:39:42;;;;;;;10.27;7.47;;;26.60;62.10;;;;;;5066872;28;20196;-62
2022/08/27 11:42:48;;;;;;;14.63;7.90;;;26.70;61.70;;;;;;5082061;28;20188;-61
2022/08/27 11:45:16;;;;;;;9.97;7.30;;;26.80;62.50;;;;;;5093464;28;20192;-62
2022/08/27 11:47:59;;;;;;;15.40;7.80;;;27.00;61.60;;;;;;5102249;28;20267;-61
2022/08/27 11:50:27;;;;;;;9.13;6.80;;;27.20;61.70;;;;;;5092968;28;20294;-61
2022/08/27 11:53:04;;;;;;;12.33;7.23;;;27.20;61.20;;;;;;5091656;28;20260;-62
2022/08/27 11:55:38;;;;;;;11.67;7.13;;;27.40;61.10;;;;;;5103513;28;20187;-61
2022/08/27 11:58:16;;;;;;;9.17;6.73;;;27.40;61.60;;;;;;5094338;28;20191;-61
2022/08/27 12:00:44;;;;;;;11.80;7.47;;;27.60;61.90;;;;;;5108219;28;20184;-61
2022/08/27 12:03:27;;;;;;;10.67;6.77;;;27.70;62.50;;;;;;5074967;28;20188;-61
2022/08/27 12:05:53;;;;;;;10.33;6.67;;;28.10;61.50;;;;;;5089836;28;20188;-61
2022/08/27 12:08:21;;;;;;;10.93;7.10;;;28.20;60.30;;;;;;5095124;28;20240;-61
2022/08/27 12:11:24;;;;;;;13.37;7.57;;;28.40;59.90;;;;;;5094641;28;20226;-61
2022/08/27 12:13:55;;;;;;;10.60;7.10;;;28.60;61.50;;;;;;5092720;28;20242;-61
2022/08/27 12:16:22;;;;;;;10.13;6.50;;;28.80;59.00;;;;;;5109860;28;20233;-61
2022/08/27 12:19:02;;;;;;;8.90;6.87;;;28.70;58.30;;;;;;5116936;28;20187;-61
2022/08/27 12:21:34;;;;;;;12.67;6.73;;;28.50;59.00;;;;;;5115881;28;20194;-61
2022/08/27 12:24:29;;;;;;;11.17;6.90;;;28.40;59.90;;;;;;5115081;28;20237;-61
2022/08/27 12:27:24;;;;;;;15.53;6.77;;;28.30;60.00;;;;;;5093584;28;20235;-61
2022/08/27 12:29:57;;;;;;;14.97;6.40;;;28.20;60.20;;;;;;5095763;28;20227;-61
2022/08/27 12:32:35;;;;;;;10.17;6.40;;;28.60;60.20;;;;;;5089549;28;20225;-61
2022/08/27 12:35:06;;;;;;;10.57;6.27;;;29.30;57.60;;;;;;5112016;28;20177;-62
2022/08/27 12:37:53;;;;;;;13.50;5.97;;;29.90;57.30;;;;;;5108153;28;20232;-61
2022/08/27 12:40:23;;;;;;;7.60;5.47;;;30.60;55.30;;;;;;5093138;28;20246;-61
2022/08/27 12:42:51;;;;;;;11.23;5.20;;;31.20;51.10;;;;;;5106048;28;20185;-61
2022/08/27 12:45:19;;;;;;;9.00;5.00;;;31.70;49.90;;;;;;5086174;28;20271;-61
2022/08/27 12:47:45;;;;;;;9.30;4.80;;;32.30;48.60;;;;;;5098178;28;20283;-61
2022/08/27 12:50:11;;;;;;;13.40;5.03;;;32.90;47.50;;;;;;5080021;28;20212;-61
2022/08/27 12:53:03;;;;;;;11.77;5.00;;;33.10;45.50;;;;;;5097246;28;20267;-62
2022/08/27 12:55:58;;;;;;;14.93;5.87;;;33.30;45.70;;;;;;5097837;28;20180;-61
2022/08/27 12:58:55;;;;;;;15.80;6.17;;;33.20;47.10;;;;;;5096620;28;20206;-61
2022/08/27 13:01:45;;;;;;;10.00;6.00;;;32.80;46.90;;;;;;5108302;28;20181;-61
2022/08/27 13:04:23;;;;;;;12.67;5.87;;;33.30;47.40;;;;;;5105717;28;20195;-61